Time;durP1;ratioP1;P1;durP2;ratioP2;P2;SDS_P1;SDS_P2;PMS_P1;PMS_P2;Temp;Humidity;BMP_temperature;BMP_pressure;BME280_temperature;BME280_humidity;BME280_pressure;Samples;Min_cycle;Max_cycle;Signal;HPM_P1;HPM_P2
2021/01/12 00:03:38;;;;;;;20.57;10.63;;;;;;;-1.19;100.00;97874.24;3665459;81;44050;-17
2021/01/12 00:08:44;;;;;;;18.60;10.37;;;;;;;-1.22;100.00;97855.94;3567322;82;43315;-18
2021/01/12 00:13:50;;;;;;;18.73;10.83;;;;;;;-1.19;100.00;97824.48;3541045;84;43304;-18
2021/01/12 00:18:55;;;;;;;18.73;10.67;;;;;;;-1.13;100.00;97834.66;3573801;82;44451;-18
2021/01/12 00:24:01;;;;;;;19.57;10.13;;;;;;;-1.11;100.00;97828.31;3542168;83;44082;-18
2021/01/12 00:29:07;;;;;;;19.17;10.57;;;;;;;-1.14;100.00;97821.07;3571130;81;44239;-18
2021/01/12 00:34:13;;;;;;;20.70;12.37;;;;;;;-1.17;100.00;97827.88;3665830;81;43075;-18
2021/01/12 00:39:21;;;;;;;19.90;10.50;;;;;;;-1.17;100.00;97788.23;3678846;79;43367;-18
2021/01/12 00:44:27;;;;;;;21.03;11.63;;;;;;;-1.16;100.00;97789.44;3666356;80;43702;-18
2021/01/12 00:49:34;;;;;;;19.67;10.03;;;;;;;-1.17;100.00;97785.09;3750987;78;44198;-18
2021/01/12 00:54:40;;;;;;;21.57;11.53;;;;;;;-1.12;100.00;97782.17;3710871;78;42956;-18
2021/01/12 00:59:46;;;;;;;17.40;9.87;;;;;;;-1.10;100.00;97775.83;3708998;79;43725;-18
2021/01/12 01:04:52;;;;;;;18.20;10.40;;;;;;;-1.08;100.00;97763.81;3648745;80;43360;-18
2021/01/12 01:09:58;;;;;;;17.13;9.93;;;;;;;-1.12;100.00;97755.25;3750695;79;44076;-18
2021/01/12 01:15:07;;;;;;;16.53;10.03;;;;;;;-1.11;100.00;97749.47;3702484;78;43067;-18
2021/01/12 01:20:15;;;;;;;17.60;10.13;;;;;;;-1.12;100.00;97735.91;3715137;79;43133;-18
2021/01/12 01:25:20;;;;;;;19.07;10.67;;;;;;;-1.09;100.00;97748.90;3650345;81;43505;-18
2021/01/12 01:30:27;;;;;;;19.83;10.13;;;;;;;-1.06;100.00;97739.45;3682294;79;44064;-18
2021/01/12 01:35:32;;;;;;;17.03;9.43;;;;;;;-1.05;100.00;97730.56;3650162;80;43670;-17
2021/01/12 01:40:38;;;;;;;16.27;9.23;;;;;;;-1.01;100.00;97729.41;3740393;79;44533;-18
2021/01/12 01:45:44;;;;;;;16.73;9.77;;;;;;;-1.00;100.00;97731.56;3672297;80;43305;-18
2021/01/12 01:50:51;;;;;;;16.53;8.73;;;;;;;-1.02;100.00;97722.44;3721156;79;44176;-18
2021/01/12 01:56:00;;;;;;;18.00;10.33;;;;;;;-1.02;100.00;97722.89;3674938;79;43413;-18
2021/01/12 02:01:06;;;;;;;15.47;8.63;;;;;;;-1.01;100.00;97712.23;3679024;79;43478;-18
2021/01/12 02:06:18;;;;;;;17.03;9.33;;;;;;;-0.96;100.00;97707.45;3640161;80;43673;-18
2021/01/12 02:11:26;;;;;;;15.07;8.30;;;;;;;-0.94;100.00;97698.08;3676119;80;44106;-18
2021/01/12 02:16:34;;;;;;;15.60;9.20;;;;;;;-0.96;100.00;97687.62;3645390;80;43404;-18
2021/01/12 02:21:47;;;;;;;16.57;8.90;;;;;;;-0.86;100.00;97670.64;3672714;80;44053;-18
2021/01/12 02:26:54;;;;;;;14.37;8.67;;;;;;;-0.90;100.00;97658.58;3649760;80;43418;-17
2021/01/12 02:32:00;;;;;;;16.27;9.17;;;;;;;-0.79;100.00;97645.94;3668310;80;44116;-17
2021/01/12 02:37:07;;;;;;;14.90;8.87;;;;;;;-0.86;100.00;97638.91;3651773;80;43524;-17
2021/01/12 02:42:17;;;;;;;14.17;8.07;;;;;;;-0.85;100.00;97641.06;3637148;80;44207;-18
2021/01/12 02:47:23;;;;;;;14.73;8.43;;;;;;;-0.81;100.00;97616.10;3671614;78;43660;-17
2021/01/12 02:52:30;;;;;;;17.47;9.03;;;;;;;-0.85;100.00;97604.05;3693798;80;43172;-18
2021/01/12 02:57:36;;;;;;;15.83;8.73;;;;;;;-0.89;100.00;97602.59;3698360;80;43759;-18
2021/01/12 03:02:41;;;;;;;15.57;9.27;;;;;;;-0.89;100.00;97599.95;3696170;78;43685;-17
2021/01/12 03:07:48;;;;;;;16.30;9.57;;;;;;;-0.90;100.00;97592.97;3719380;78;43436;-18
2021/01/12 03:12:54;;;;;;;16.83;9.50;;;;;;;-0.87;100.00;97585.66;3716805;78;43289;-18
2021/01/12 03:18:00;;;;;;;19.23;10.23;;;;;;;-0.97;100.00;97578.84;3691618;80;43723;-18
2021/01/12 03:23:06;;;;;;;18.90;9.87;;;;;;;-1.12;100.00;97567.58;3700385;80;44079;-17
2021/01/12 03:28:12;;;;;;;19.57;10.90;;;;;;;-1.14;100.00;97562.04;3690468;80;43348;-17
2021/01/12 03:33:17;;;;;;;19.57;10.80;;;;;;;-1.13;100.00;97543.42;3702273;80;44062;-18
2021/01/12 03:38:23;;;;;;;19.97;11.00;;;;;;;-1.10;100.00;97530.45;3719405;80;43661;-17
2021/01/12 03:43:29;;;;;;;21.67;11.60;;;;;;;-1.15;100.00;97536.06;3718251;78;44033;-17
2021/01/12 03:48:35;;;;;;;20.00;11.00;;;;;;;-1.12;100.00;97529.25;3699143;79;43711;-17
2021/01/12 03:53:40;;;;;;;20.27;11.17;;;;;;;-1.05;100.00;97526.15;3719042;78;44046;-17
2021/01/12 03:58:47;;;;;;;20.10;10.80;;;;;;;-1.04;100.00;97517.27;3697726;79;44718;-18
2021/01/12 04:03:52;;;;;;;24.73;12.83;;;;;;;-1.06;100.00;97505.98;3721361;79;44736;-18
2021/01/12 04:08:58;;;;;;;24.60;11.67;;;;;;;-1.06;100.00;97498.89;3732259;79;44066;-17
2021/01/12 04:14:06;;;;;;;24.13;11.30;;;;;;;-1.08;100.00;97495.50;3686977;78;43732;-17
2021/01/12 04:19:12;;;;;;;21.10;11.57;;;;;;;-1.10;100.00;97487.70;3672929;79;43350;-17
2021/01/12 04:24:18;;;;;;;20.13;10.50;;;;;;;-1.04;100.00;97490.38;3725032;79;44062;-17
2021/01/12 04:29:24;;;;;;;22.70;11.20;;;;;;;-1.03;100.00;97472.23;3690422;79;43399;-18
2021/01/12 04:34:30;;;;;;;21.07;11.53;;;;;;;-0.98;100.00;97470.08;3728140;78;43728;-17
2021/01/12 04:39:35;;;;;;;16.97;9.73;;;;;;;-0.98;100.00;97465.29;3732402;79;43330;-17
2021/01/12 04:44:41;;;;;;;18.03;9.13;;;;;;;-1.08;100.00;97450.56;3727980;78;44169;-18
2021/01/12 04:49:47;;;;;;;16.00;9.00;;;;;;;-1.12;100.00;97449.95;3712157;78;44396;-18
2021/01/12 04:54:53;;;;;;;15.57;8.47;;;;;;;-1.16;100.00;97443.69;3681301;80;44128;-18
2021/01/12 04:59:59;;;;;;;15.20;8.30;;;;;;;-1.17;100.00;97439.36;3695758;80;44072;-18
2021/01/12 05:05:08;;;;;;;15.43;8.40;;;;;;;-1.18;100.00;97420.02;3720945;80;43489;-18
2021/01/12 05:10:16;;;;;;;14.47;8.40;;;;;;;-1.18;100.00;97402.84;3673025;78;44039;-18
2021/01/12 05:15:22;;;;;;;12.93;7.03;;;;;;;-1.21;100.00;97391.17;3720490;78;43653;-18
2021/01/12 05:20:28;;;;;;;13.10;7.53;;;;;;;-1.21;100.00;97387.20;3692297;78;44115;-18
2021/01/12 05:25:39;;;;;;;12.77;7.17;;;;;;;-1.19;100.00;97375.19;3720391;80;44414;-18
2021/01/12 05:30:45;;;;;;;11.53;6.73;;;;;;;-1.15;100.00;97375.34;3672575;80;43427;-19
2021/01/12 05:35:53;;;;;;;13.07;6.90;;;;;;;-1.12;100.00;97369.34;3720785;78;44066;-18
2021/01/12 05:41:02;;;;;;;11.00;6.47;;;;;;;-1.06;100.00;97361.44;3720376;79;44550;-18
2021/01/12 05:46:12;;;;;;;11.63;6.53;;;;;;;-1.00;100.00;97348.23;3718533;78;43428;-18
2021/01/12 05:51:18;;;;;;;10.30;6.07;;;;;;;-0.98;100.00;97349.80;3718177;78;43721;-18
2021/01/12 05:56:27;;;;;;;12.13;6.40;;;;;;;-0.93;100.00;97341.52;3715059;80;44576;-18
2021/01/12 06:01:52;;;;;;;12.30;6.53;;;;;;;-0.91;100.00;97344.06;3678202;80;44062;-18
2021/01/12 06:06:58;;;;;;;10.83;6.43;;;;;;;-0.92;100.00;97335.77;3720119;80;44151;-17
2021/01/12 06:12:05;;;;;;;12.20;6.50;;;;;;;-0.89;100.00;97323.64;3720237;78;43677;-17
2021/01/12 06:17:12;;;;;;;11.07;6.50;;;;;;;-0.85;100.00;97315.36;3718638;80;44415;-17
2021/01/12 06:22:23;;;;;;;11.03;6.63;;;;;;;-0.79;100.00;97318.84;3707045;79;43715;-17
2021/01/12 06:27:32;;;;;;;12.03;6.77;;;;;;;-0.73;100.00;97305.63;3718710;78;43677;-17
2021/01/12 06:32:38;;;;;;;12.00;6.67;;;;;;;-0.71;100.00;97295.78;3719219;80;44083;-22
2021/01/12 06:37:46;;;;;;;11.70;6.20;;;;;;;-0.63;100.00;97291.22;3716411;80;44015;-19
2021/01/12 06:42:54;;;;;;;10.60;6.27;;;;;;;-0.60;100.00;97290.99;3688377;78;43459;-15
2021/01/12 06:48:00;;;;;;;10.73;5.87;;;;;;;-0.56;100.00;97276.55;3702845;78;43369;-16
2021/01/12 06:53:06;;;;;;;10.17;6.00;;;;;;;-0.50;100.00;97273.44;3700124;79;44502;-15
2021/01/12 06:58:12;;;;;;;11.83;5.90;;;;;;;-0.49;100.00;97276.91;3689350;78;43109;-19
2021/01/12 07:03:21;;;;;;;9.03;5.83;;;;;;;-0.46;100.00;97266.09;3689368;79;44074;-20
2021/01/12 07:08:30;;;;;;;9.87;5.87;;;;;;;-0.47;100.00;97259.12;3699575;79;43317;-20
2021/01/12 07:13:41;;;;;;;9.53;5.60;;;;;;;-0.42;100.00;97263.58;3732469;79;44067;-20
2021/01/12 07:18:58;;;;;;;9.33;5.77;;;;;;;-0.37;100.00;97255.27;3732257;79;43443;-20
2021/01/12 07:24:07;;;;;;;9.17;5.13;;;;;;;-0.37;100.00;97244.20;3708257;78;43996;-18
2021/01/12 07:29:13;;;;;;;10.33;5.27;;;;;;;-0.31;100.00;97242.86;3696043;78;43289;-18
2021/01/12 07:34:20;;;;;;;8.70;4.73;;;;;;;-0.30;100.00;97232.64;3728415;79;43352;-18
2021/01/12 07:39:26;;;;;;;10.60;5.23;;;;;;;-0.26;100.00;97230.59;3691648;79;43727;-18
2021/01/12 07:44:32;;;;;;;6.60;4.37;;;;;;;-0.19;100.00;97227.83;3723496;79;44137;-18
2021/01/12 07:49:39;;;;;;;6.73;4.03;;;;;;;-0.17;100.00;97218.79;3720998;78;44190;-18
2021/01/12 07:54:45;;;;;;;6.80;4.10;;;;;;;-0.08;100.00;97221.19;3719955;80;44513;-18
2021/01/12 07:59:52;;;;;;;5.03;3.63;;;;;;;-0.05;100.00;97211.64;3705394;78;44047;-18
2021/01/12 08:04:59;;;;;;;6.20;3.97;;;;;;;0.00;100.00;97206.00;3719983;78;44055;-18
2021/01/12 08:10:07;;;;;;;4.17;2.80;;;;;;;0.08;100.00;97206.67;3671581;80;43983;-18
2021/01/12 08:15:16;;;;;;;4.87;2.97;;;;;;;0.10;100.00;97197.66;3718670;78;43440;-18
2021/01/12 08:20:23;;;;;;;3.63;2.37;;;;;;;0.15;100.00;97191.48;3720421;78;44039;-18
2021/01/12 08:25:31;;;;;;;5.23;3.27;;;;;;;0.19;100.00;97184.62;3720539;80;44402;-18
2021/01/12 08:30:37;;;;;;;4.23;2.60;;;;;;;0.27;100.00;97181.70;3667220;80;43382;-18
2021/01/12 08:35:46;;;;;;;5.80;3.50;;;;;;;0.27;100.00;97171.11;3693982;78;43432;-19
2021/01/12 08:40:56;;;;;;;3.57;2.40;;;;;;;0.36;100.00;97169.97;3573994;79;44086;-18
2021/01/12 08:46:04;;;;;;;2.73;1.97;;;;;;;0.38;100.00;97175.49;3631892;81;44543;-18
2021/01/12 08:51:15;;;;;;;2.87;1.83;;;;;;;0.42;100.00;97168.98;3614018;80;43673;-18
2021/01/12 08:56:23;;;;;;;2.40;1.70;;;;;;;0.50;100.00;97173.64;3688275;80;44077;-18
2021/01/12 09:01:31;;;;;;;3.60;1.80;;;;;;;0.57;100.00;97168.17;3687912;80;44312;-18
2021/01/12 09:06:37;;;;;;;2.00;1.40;;;;;;;0.56;100.00;97165.66;3707613;78;44456;-18
2021/01/12 09:11:48;;;;;;;2.23;1.60;;;;;;;0.60;100.00;97171.03;3642747;80;43402;-18
2021/01/12 09:17:02;;;;;;;2.10;1.50;;;;;;;0.66;100.00;97173.65;3673025;79;43477;-19
2021/01/12 09:22:15;;;;;;;3.27;1.60;;;;;;;0.67;100.00;97163.41;3630037;80;44023;-18
2021/01/12 09:27:23;;;;;;;2.13;1.53;;;;;;;0.70;100.00;97163.16;3665117;80;43369;-19
2021/01/12 09:32:32;;;;;;;1.80;1.40;;;;;;;0.72;100.00;97161.22;3635676;80;43998;-18
2021/01/12 09:37:38;;;;;;;1.87;1.07;;;;;;;0.76;100.00;97160.00;3651767;80;81816;-18
2021/01/12 09:42:46;;;;;;;1.60;1.10;;;;;;;0.80;100.00;97153.95;3628467;81;43341;-18
2021/01/12 09:47:52;;;;;;;3.13;1.00;;;;;;;0.84;100.00;97150.89;3640838;81;44580;-18
2021/01/12 09:52:58;;;;;;;1.23;0.90;;;;;;;0.85;100.00;97148.59;3612232;82;43348;-18
2021/01/12 09:58:04;;;;;;;1.20;0.90;;;;;;;0.94;100.00;97139.49;3612051;82;43470;-18
2021/01/12 10:03:11;;;;;;;2.20;1.00;;;;;;;1.02;100.00;97134.36;3612990;82;44455;-19
2021/01/12 10:08:18;;;;;;;1.20;1.00;;;;;;;1.10;100.00;97135.02;3611147;82;43693;-18
2021/01/12 10:13:24;;;;;;;1.47;1.00;;;;;;;1.18;100.00;97129.41;3612723;82;43385;-19
2021/01/12 10:18:31;;;;;;;1.10;0.90;;;;;;;1.18;100.00;97134.71;3611442;82;43264;-19
2021/01/12 10:23:37;;;;;;;2.27;0.80;;;;;;;1.23;100.00;97131.66;3611777;82;43715;-18
2021/01/12 10:28:43;;;;;;;0.70;0.70;;;;;;;1.30;100.00;97129.30;3609652;82;44121;-18
2021/01/12 10:33:49;;;;;;;0.87;0.67;;;;;;;1.34;100.00;97112.15;3600273;82;43689;-19
2021/01/12 10:38:55;;;;;;;1.00;0.90;;;;;;;1.45;100.00;97116.48;3579814;82;43692;-18
2021/01/12 10:44:01;;;;;;;0.93;0.70;;;;;;;1.59;100.00;97112.13;3529650;83;43430;-19
2021/01/12 10:49:07;;;;;;;0.73;0.60;;;;;;;1.63;100.00;97111.36;3611152;82;43618;-19
2021/01/12 10:54:13;;;;;;;0.80;0.60;;;;;;;1.62;100.00;97107.02;3612409;82;44054;-19
2021/01/12 10:59:19;;;;;;;0.67;0.60;;;;;;;1.64;100.00;97103.27;3612572;82;44047;-19
2021/01/12 11:04:26;;;;;;;0.70;0.50;;;;;;;1.66;100.00;97091.17;3613383;82;44371;-19
2021/01/12 11:09:31;;;;;;;0.40;0.40;;;;;;;1.74;100.00;97083.35;3611317;82;44103;-19
2021/01/12 11:14:37;;;;;;;0.73;0.60;;;;;;;1.81;100.00;97080.98;3619962;82;44081;-19
2021/01/12 11:19:43;;;;;;;0.70;0.50;;;;;;;1.90;100.00;97076.16;3614524;82;43570;-20
2021/01/12 11:24:49;;;;;;;0.47;0.43;;;;;;;1.88;100.00;97061.34;3611057;82;43978;-21
2021/01/12 11:29:56;;;;;;;0.33;0.33;;;;;;;1.87;100.00;97062.33;3608622;82;43642;-21
2021/01/12 11:35:03;;;;;;;0.60;0.50;;;;;;;1.79;100.00;97063.88;3611560;82;43474;-20
2021/01/12 11:40:11;;;;;;;0.63;0.50;;;;;;;1.79;100.00;97047.94;3609101;82;43137;-21
2021/01/12 11:45:17;;;;;;;0.40;0.40;;;;;;;1.79;100.00;97041.30;3614041;82;44155;-22
2021/01/12 11:50:23;;;;;;;0.50;0.50;;;;;;;1.80;100.00;97035.02;3614468;81;42876;-20
2021/01/12 11:55:30;;;;;;;0.40;0.40;;;;;;;1.75;100.00;97029.78;3616386;82;43396;-21
2021/01/12 12:00:36;;;;;;;0.40;0.40;;;;;;;1.77;100.00;97012.72;3617053;82;43646;-21
2021/01/12 12:05:42;;;;;;;0.40;0.40;;;;;;;1.79;100.00;97006.78;3617039;82;43274;-21
2021/01/12 12:10:48;;;;;;;0.50;0.50;;;;;;;1.76;100.00;97007.56;3614521;82;44074;-21
2021/01/12 12:15:54;;;;;;;0.50;0.40;;;;;;;1.74;100.00;97016.98;3561059;83;43448;-22
2021/01/12 12:21:00;;;;;;;0.50;0.40;;;;;;;1.73;100.00;97004.67;3666149;81;44760;-21
2021/01/12 12:26:10;;;;;;;0.87;0.40;;;;;;;1.73;100.00;96997.22;3616916;82;43457;-21
2021/01/12 12:31:17;;;;;;;0.50;0.30;;;;;;;1.74;100.00;96998.39;3614376;82;44461;-21
2021/01/12 12:36:23;;;;;;;0.60;0.50;;;;;;;1.67;100.00;96993.30;3616976;82;43440;-21
2021/01/12 12:41:32;;;;;;;1.23;0.60;;;;;;;1.57;100.00;96995.12;3614792;82;43525;-20
2021/01/12 12:46:38;;;;;;;0.80;0.50;;;;;;;1.54;100.00;96990.45;3616508;82;43691;-20
2021/01/12 12:51:49;;;;;;;0.50;0.50;;;;;;;1.54;100.00;96980.30;3657993;80;43342;-20
2021/01/12 12:56:55;;;;;;;0.57;0.50;;;;;;;1.55;100.00;96976.67;3634682;81;44178;-20
2021/01/12 13:02:05;;;;;;;0.73;0.60;;;;;;;1.53;100.00;96979.95;3634662;81;44429;-20
2021/01/12 13:07:15;;;;;;;0.50;0.50;;;;;;;1.62;100.00;96979.13;3620633;81;43698;-21
2021/01/12 13:12:24;;;;;;;0.73;0.70;;;;;;;1.63;100.00;96979.95;3548516;82;44023;-20
2021/01/12 13:17:33;;;;;;;1.13;0.80;;;;;;;1.61;100.00;96978.78;3616411;81;43585;-20
2021/01/12 13:22:41;;;;;;;1.13;0.73;;;;;;;1.61;100.00;96977.92;3568707;81;43340;-20
2021/01/12 13:27:48;;;;;;;1.73;0.80;;;;;;;1.62;100.00;96976.95;3612751;81;43346;-20
2021/01/12 13:32:54;;;;;;;0.90;0.90;;;;;;;1.64;100.00;96976.33;3557434;82;43689;-19
2021/01/12 13:38:01;;;;;;;0.97;0.87;;;;;;;1.67;100.00;96974.22;3610323;81;43719;-19
2021/01/12 13:43:07;;;;;;;1.90;0.80;;;;;;;1.69;100.00;96986.05;3560794;82;43674;-19
2021/01/12 13:48:14;;;;;;;0.80;0.60;;;;;;;1.66;100.00;96984.98;3607488;81;44043;-19
2021/01/12 13:53:22;;;;;;;0.40;0.40;;;;;;;1.66;100.00;96986.32;3550902;81;43346;-19
2021/01/12 13:58:30;;;;;;;1.57;0.50;;;;;;;1.73;100.00;96990.58;3634541;81;43303;-18
2021/01/12 14:03:38;;;;;;;0.60;0.40;;;;;;;1.81;100.00;96999.52;3618992;82;43442;-18
2021/01/12 14:08:44;;;;;;;0.40;0.40;;;;;;;1.81;100.00;96992.88;3615757;82;43686;-18
2021/01/12 14:13:50;;;;;;;0.40;0.40;;;;;;;1.82;100.00;97013.63;3615567;82;43282;-18
2021/01/12 14:18:57;;;;;;;0.80;0.40;;;;;;;1.77;100.00;97018.03;3615797;82;44011;-18
2021/01/12 14:24:04;;;;;;;1.13;0.50;;;;;;;1.75;100.00;97020.48;3615809;82;43734;-18
2021/01/12 14:29:12;;;;;;;0.50;0.50;;;;;;;1.69;100.00;97024.54;3624249;81;43373;-18
2021/01/12 14:34:18;;;;;;;0.80;0.60;;;;;;;1.71;100.00;97036.34;3615891;82;44016;-19
2021/01/12 14:39:28;;;;;;;0.60;0.60;;;;;;;1.75;100.00;97037.23;3615251;82;43649;-18
2021/01/12 14:44:35;;;;;;;2.17;0.70;;;;;;;1.76;100.00;97049.54;3615972;82;43700;-18
2021/01/12 14:49:41;;;;;;;0.63;0.63;;;;;;;1.92;100.00;97063.58;3615294;81;44044;-18
2021/01/12 14:54:48;;;;;;;1.07;0.80;;;;;;;1.89;100.00;97071.00;3616037;82;44010;-18
2021/01/12 14:59:55;;;;;;;1.33;0.80;;;;;;;1.91;100.00;97073.03;3649414;81;44082;-19
2021/01/12 15:05:01;;;;;;;1.10;0.77;;;;;;;1.83;100.00;97087.82;3631207;81;44608;-19
2021/01/12 15:10:09;;;;;;;0.70;0.70;;;;;;;1.76;100.00;97098.66;3614439;82;43538;-19
2021/01/12 15:15:18;;;;;;;1.33;1.00;;;;;;;1.78;100.00;97107.80;3615970;82;43297;-19
2021/01/12 15:20:24;;;;;;;1.20;1.10;;;;;;;1.75;100.00;97120.05;3614482;82;44050;-19
2021/01/12 15:25:30;;;;;;;1.77;1.50;;;;;;;1.68;100.00;97137.02;3614798;82;43969;-19
2021/01/12 15:30:36;;;;;;;1.40;1.30;;;;;;;1.54;100.00;97140.88;3627258;81;43686;-19
2021/01/12 15:35:45;;;;;;;1.93;1.60;;;;;;;1.40;100.00;97144.77;3602727;81;44176;-19
2021/01/12 15:40:52;;;;;;;2.27;2.07;;;;;;;1.34;100.00;97147.97;3613630;82;44047;-19
2021/01/12 15:45:59;;;;;;;2.53;2.27;;;;;;;1.34;100.00;97167.87;3616565;82;43357;-19
2021/01/12 15:51:06;;;;;;;2.60;2.40;;;;;;;1.28;100.00;97180.33;3614562;81;43690;-19
2021/01/12 15:56:14;;;;;;;3.90;3.50;;;;;;;1.19;100.00;97198.73;3615994;82;43352;-20
2021/01/12 16:01:22;;;;;;;7.23;6.53;;;;;;;1.19;100.00;97205.36;3616367;81;43468;-19
2021/01/12 16:06:29;;;;;;;11.37;7.60;;;;;;;1.22;100.00;97218.37;3667573;81;43712;-19
2021/01/12 16:11:38;;;;;;;6.53;5.60;;;;;;;1.21;100.00;97214.51;3613754;82;43685;-21
2021/01/12 16:16:48;;;;;;;4.97;4.03;;;;;;;1.17;100.00;97215.77;3605094;82;43251;-20
2021/01/12 16:21:56;;;;;;;6.27;4.17;;;;;;;1.12;100.00;97225.41;3611393;81;43320;-21
2021/01/12 16:27:04;;;;;;;7.33;6.53;;;;;;;1.06;100.00;97225.95;3612750;82;43357;-20
2021/01/12 16:32:11;;;;;;;5.77;4.67;;;;;;;1.05;100.00;97246.81;3613454;82;44047;-19
2021/01/12 16:37:19;;;;;;;7.27;4.90;;;;;;;0.98;100.00;97246.98;3616951;81;44020;-19
2021/01/12 16:42:27;;;;;;;6.20;4.80;;;;;;;0.94;100.00;97252.19;3613881;82;44019;-19
2021/01/12 16:47:35;;;;;;;15.77;10.77;;;;;;;0.94;100.00;97252.19;3610245;81;43632;-19
2021/01/12 16:52:48;;;;;;;7.20;5.30;;;;;;;0.92;100.00;97260.28;3615227;82;26430;-20
2021/01/12 16:57:57;;;;;;;7.00;5.70;;;;;;;0.94;100.00;97261.47;3618810;82;44167;-19
2021/01/12 17:03:07;;;;;;;10.97;8.70;;;;;;;0.93;100.00;97264.62;3623072;80;26442;-19
2021/01/12 17:08:16;;;;;;;6.60;4.60;;;;;;;0.93;100.00;97272.58;3621181;80;26875;-19
2021/01/12 17:13:24;;;;;;;5.13;4.60;;;;;;;0.87;100.00;97272.61;3618181;82;26399;-19
2021/01/12 17:18:35;;;;;;;6.23;5.13;;;;;;;0.84;100.00;97291.88;3619188;82;26346;-19
2021/01/12 17:23:47;;;;;;;6.37;5.17;;;;;;;0.80;100.00;97299.25;3550730;82;43004;-19
2021/01/12 17:28:55;;;;;;;5.73;3.80;;;;;;;0.77;100.00;97300.83;3594375;82;42849;-19
2021/01/12 17:34:05;;;;;;;6.40;4.10;;;;;;;0.77;100.00;97303.48;3621032;81;26757;-19
2021/01/12 17:39:15;;;;;;;3.20;2.63;;;;;;;0.73;100.00;97314.00;3621051;80;43412;-19
2021/01/12 17:44:22;;;;;;;6.20;2.67;;;;;;;0.71;100.00;97327.86;3628064;81;43765;-22
2021/01/12 17:49:30;;;;;;;3.10;2.30;;;;;;;0.69;100.00;97332.44;3634993;81;43714;-23
2021/01/12 17:54:41;;;;;;;2.77;2.20;;;;;;;0.64;100.00;97336.80;3624908;81;43718;-22
2021/01/12 17:59:50;;;;;;;5.10;2.70;;;;;;;0.64;100.00;97346.57;3644860;81;26379;-19
2021/01/12 18:04:59;;;;;;;5.50;2.80;;;;;;;0.57;100.00;97344.41;3624319;81;26333;-19
2021/01/12 18:10:15;;;;;;;4.77;2.70;;;;;;;0.52;100.00;97353.23;3644126;80;26938;-19
2021/01/12 18:15:27;;;;;;;3.70;2.07;;;;;;;0.61;100.00;97360.42;3643269;81;26336;-19
2021/01/12 18:20:33;;;;;;;6.20;1.90;;;;;;;0.54;100.00;97361.88;3645704;81;44776;-19
2021/01/12 18:25:42;;;;;;;1.67;1.30;;;;;;;0.55;100.00;97364.05;3642446;81;43149;-22
2021/01/12 18:30:49;;;;;;;4.77;1.80;;;;;;;0.67;100.00;97367.50;3645615;81;44054;-19
2021/01/12 18:35:58;;;;;;;2.23;1.60;;;;;;;0.64;100.00;97390.30;3606650;81;26330;-19
2021/01/12 18:41:08;;;;;;;4.83;1.90;;;;;;;0.58;100.00;97389.82;3603090;82;26416;-19
2021/01/12 18:46:19;;;;;;;5.33;1.63;;;;;;;0.52;100.00;97403.58;3572230;82;26798;-19
2021/01/12 18:51:27;;;;;;;44.17;17.93;;;;;;;0.60;100.00;97405.12;3621583;82;43724;-19
2021/01/12 18:56:34;;;;;;;6.73;2.50;;;;;;;0.70;100.00;97410.53;3692369;80;43701;-19
2021/01/12 19:01:42;;;;;;;5.33;2.47;;;;;;;0.76;100.00;97421.12;3693188;80;44183;-19
2021/01/12 19:06:52;;;;;;;3.20;1.63;;;;;;;0.76;100.00;97417.97;3643985;80;43934;-19
2021/01/12 19:12:02;;;;;;;3.60;1.57;;;;;;;1.02;100.00;97422.11;3691124;80;43351;-19
2021/01/12 19:17:10;;;;;;;2.40;1.83;;;;;;;1.07;100.00;97428.72;3713071;79;44031;-19
2021/01/12 19:22:22;;;;;;;6.53;2.23;;;;;;;1.21;100.00;97445.31;3686499;80;43931;-19
2021/01/12 19:27:29;;;;;;;3.23;1.90;;;;;;;1.15;100.00;97457.77;3649637;80;43658;-19
2021/01/12 19:32:40;;;;;;;4.70;1.90;;;;;;;1.13;100.00;97461.03;3684812;80;44112;-18
2021/01/12 19:37:48;;;;;;;5.43;2.00;;;;;;;1.17;100.00;97471.26;3666436;80;43435;-18
2021/01/12 19:42:56;;;;;;;2.50;1.77;;;;;;;1.20;100.00;97479.45;3681722;80;43400;-19
2021/01/12 19:48:05;;;;;;;5.77;2.37;;;;;;;1.11;100.00;97496.98;3658230;79;43727;-19
2021/01/12 19:53:13;;;;;;;5.43;2.20;;;;;;;1.10;100.00;97509.02;3687332;80;43719;-18
2021/01/12 19:58:21;;;;;;;3.50;2.10;;;;;;;1.13;100.00;97508.28;3629115;82;43682;-19
2021/01/12 20:03:29;;;;;;;4.23;2.20;;;;;;;1.11;100.00;97523.50;3627449;80;43685;-19
2021/01/12 20:08:36;;;;;;;4.07;2.30;;;;;;;1.16;100.00;97539.87;3622345;80;43078;-19
2021/01/12 20:13:43;;;;;;;3.53;2.20;;;;;;;1.13;100.00;97544.09;3627886;82;43762;-18
2021/01/12 20:18:51;;;;;;;4.87;3.17;;;;;;;1.19;100.00;97536.98;3622697;80;43443;-19
2021/01/12 20:23:59;;;;;;;8.60;2.20;;;;;;;1.16;100.00;97555.79;3629224;82;43360;-18
2021/01/12 20:29:06;;;;;;;5.40;3.13;;;;;;;1.16;100.00;97557.12;3626629;80;44079;-19
2021/01/12 20:34:15;;;;;;;6.63;2.00;;;;;;;1.14;100.00;97576.29;3601440;82;44039;-19
2021/01/12 20:39:22;;;;;;;4.33;2.10;;;;;;;1.18;100.00;97583.52;3605867;82;44003;-19
2021/01/12 20:44:29;;;;;;;3.20;1.50;;;;;;;1.09;100.00;97594.40;3598930;82;44102;-18
2021/01/12 20:49:36;;;;;;;7.10;1.80;;;;;;;0.94;100.00;97597.79;3608093;82;44138;-18
2021/01/12 20:54:43;;;;;;;3.23;1.50;;;;;;;0.73;100.00;97613.07;3630048;79;43427;-19
2021/01/12 20:59:49;;;;;;;2.77;1.30;;;;;;;0.67;100.00;97614.02;3612514;82;43718;-19
2021/01/12 21:04:55;;;;;;;4.13;1.43;;;;;;;0.54;100.00;97608.84;3590835;82;44596;-19
2021/01/12 21:10:01;;;;;;;4.20;1.30;;;;;;;0.51;100.00;97617.88;3613130;82;44447;-18
2021/01/12 21:15:09;;;;;;;3.97;1.43;;;;;;;0.45;100.00;97631.58;3592540;82;44040;-18
2021/01/12 21:20:17;;;;;;;4.03;1.30;;;;;;;0.55;100.00;97621.96;3616649;82;43718;-18
2021/01/12 21:25:24;;;;;;;5.73;1.20;;;;;;;0.47;100.00;97624.37;3629391;80;43676;-18
2021/01/12 21:30:30;;;;;;;3.33;1.33;;;;;;;0.48;100.00;97630.03;3627412;82;43405;-17
2021/01/12 21:35:36;;;;;;;3.90;1.10;;;;;;;0.38;100.00;97639.64;3592761;82;43467;-16
2021/01/12 21:40:42;;;;;;;4.47;1.10;;;;;;;0.38;100.00;97639.16;3625527;82;44100;-26
2021/01/12 21:45:48;;;;;;;6.20;1.17;;;;;;;0.39;100.00;97634.72;3585213;82;44062;-15
2021/01/12 21:50:54;;;;;;;5.20;0.93;;;;;;;0.49;100.00;97656.90;3623202;82;44023;-15
2021/01/12 21:56:00;;;;;;;4.07;1.10;;;;;;;0.54;100.00;97671.95;3613064;80;43728;-15
2021/01/12 22:01:06;;;;;;;5.77;0.93;;;;;;;0.50;100.00;97671.84;3658479;81;43409;-16
2021/01/12 22:06:12;;;;;;;3.97;0.93;;;;;;;0.52;100.00;97675.23;3612122;80;43104;-16
2021/01/12 22:11:25;;;;;;;2.83;1.20;;;;;;;0.59;100.00;97679.09;3603843;82;43705;-16
2021/01/12 22:16:32;;;;;;;2.33;1.20;;;;;;;0.63;100.00;97686.81;3604630;81;43096;-16
2021/01/12 22:21:45;;;;;;;4.53;1.20;;;;;;;0.52;100.00;97687.62;3658434;81;44003;-16
2021/01/12 22:26:52;;;;;;;3.10;1.10;;;;;;;0.59;100.00;97694.98;3612436;81;43720;-15
2021/01/12 22:31:59;;;;;;;4.90;1.27;;;;;;;0.79;100.00;97704.55;3708919;80;43692;-18
2021/01/12 22:37:06;;;;;;;4.60;1.10;;;;;;;0.79;100.00;97701.89;3624081;80;42920;-16
2021/01/12 22:42:12;;;;;;;4.37;1.20;;;;;;;0.84;100.00;97699.75;3658636;81;44115;-16
2021/01/12 22:47:18;;;;;;;4.70;1.10;;;;;;;0.90;100.00;97705.89;3615070;81;44070;-16
2021/01/12 22:52:24;;;;;;;5.17;1.77;;;;;;;0.90;100.00;97711.20;3656819;81;43716;-17
2021/01/12 22:57:30;;;;;;;4.97;1.07;;;;;;;0.85;100.00;97710.72;3655235;80;44081;-16
2021/01/12 23:02:36;;;;;;;3.70;1.53;;;;;;;0.83;100.00;97721.06;3718946;79;43334;-16
2021/01/12 23:07:44;;;;;;;13.67;1.83;;;;;;;0.82;100.00;97727.35;3651320;80;43698;-16
2021/01/12 23:12:51;;;;;;;5.20;1.33;;;;;;;0.80;100.00;97731.92;3687182;80;43473;-16
2021/01/12 23:17:56;;;;;;;4.87;1.10;;;;;;;0.83;100.00;97734.31;3653052;80;43758;-16
2021/01/12 23:23:04;;;;;;;4.40;1.13;;;;;;;0.75;100.00;97742.38;3682109;80;44473;-16
2021/01/12 23:28:09;;;;;;;8.80;1.20;;;;;;;0.70;100.00;97743.70;3656100;80;43334;-16
2021/01/12 23:33:16;;;;;;;9.23;1.70;;;;;;;0.66;100.00;97753.69;3692689;79;44228;-16
2021/01/12 23:38:23;;;;;;;4.97;1.10;;;;;;;0.56;100.00;97764.12;3672000;80;43587;-17
2021/01/12 23:43:29;;;;;;;5.13;1.47;;;;;;;0.41;100.00;97776.72;3679948;80;44021;-16
2021/01/12 23:48:35;;;;;;;5.90;1.70;;;;;;;0.49;100.00;97779.27;3661051;80;43366;-16
2021/01/12 23:53:41;;;;;;;7.00;1.40;;;;;;;0.53;100.00;97774.12;3677637;80;43677;-16